Deerfield Beach, FL (33442)

4:06 PM EDT on May 24, 2015 (GMT -0400)
Deer Run | | Change Station
CLOSE
Current Station
Personal Weather Station
Location: Deerfield Beach, FL
Elevation: 39 ft
Nearby Weather Stations

Elev 39 ft 26.31 °N, 80.15 °W | Updated 44 seconds ago

Partly Cloudy
Partly Cloudy
95.4 °F
Feels Like 108 °F
N
0.0
Wind Variable Wind from SE
Gusts 0.0 mph

Today
High -- | Low -- °F
--% Chance of Precip.
Yesterday
High -- | Low -- °F
Precip. -- in
6:30 AM 8:04 PM
Waxing Crescent, 42% visible
Pressure 30.14 in
Visibility 10.0 miles
Clouds Clear
Heat Index 108 °F
Dew Point 76 °F
Humidity 53%
Rainfall 0.00 in
Snow Depth Not available.
UV 11 out of 12
Pollen 5.20 out of 12
Air Quality Not available.
Flu Activity Sporadic
METAR KPMP 241953Z 11013KT 10SM CLR 30/22 A3014 RMK AO2 SLP206 T03000222

More Conditions Fewer Conditions

Pressure 30.14 in
Visibility 10.0 miles
Clouds Clear
Heat Index 108 °F
Dew Point 76 °F
Humidity 53%
Rainfall 0.00 in
Snow Depth Not available.
UV 11 out of 12
Pollen 5.20 out of 12
Air Quality Not available.
Flu Activity Sporadic
METAR KPMP 241953Z 11013KT 10SM CLR 30/22 A3014 RMK AO2 SLP206 T03000222

More Conditions Fewer Conditions

Nowcast | as of 3:13 PM EDT on May 24, 2015

Isolated showers will continue to stream westward from Atlantic waters into the Miami metropolitan area. Brief heavy downpours can be expected this afternoon. A thunderstorm or two cant be ruled out.

×

10-Day Weather Forecast

Almanac

Astronomy

May. 24, 2015 Rise Set
Actual Time
Civil Twilight
Nautical Twilight
Astronomical Twilight
Moon
Length of Visible Light
Length of Day
Tomorrow will be .
, % of the Moon is Illuminated

Today's Extremes

State Highs State Lows

Community

WunderPhotos

Upload Photos

1,823,850 photos uploaded!

WunderBlogs® & News

Nearby

Air Quality

  Air Quality AQ Index Pollutant
Not available.

Snow Depth

Station Depth Elevation

Earthquake Activity

City Distance Mag. Time & Date
Minimum magnitude displayed is 2.5.

Coastal Water Temperatures

Place Temperature

Stations

Nearby Weather Stations

Station Location Temp. Windchill Dew Point Humidity Wind Precip. Elev Updated Type